Time;durP1;ratioP1;P1;durP2;ratioP2;P2;SDS_P1;SDS_P2;PMS_P1;PMS_P2;Temp;Humidity;BMP_temperature;BMP_pressure;BME280_temperature;BME280_humidity;BME280_pressure;Samples;Min_cycle;Max_cycle;Signal;HPM_P1;HPM_P2
2023/11/14 00:01:06;;;;;;;;;;;17.20;64.50;;;;;;5042452;28;20371;-62
2023/11/14 00:03:32;;;;;;;;;;;17.20;64.60;;;;;;5036099;28;19982;-63
2023/11/14 00:05:58;;;;;;;;;;;17.20;64.60;;;;;;5045511;28;20019;-65
2023/11/14 00:08:23;;;;;;;;;;;17.20;64.50;;;;;;5044468;28;19963;-64
2023/11/14 00:10:49;;;;;;;;;;;17.20;64.60;;;;;;5040898;28;19912;-64
2023/11/14 00:13:14;;;;;;;;;;;17.20;64.60;;;;;;5040887;28;20348;-64
2023/11/14 00:15:40;;;;;;;;;;;17.20;64.60;;;;;;5043029;28;19912;-64
2023/11/14 00:18:05;;;;;;;;;;;17.20;64.60;;;;;;5047502;28;20290;-64
2023/11/14 00:20:31;;;;;;;;;;;17.20;64.60;;;;;;5045101;28;19909;-63
2023/11/14 00:22:57;;;;;;;;;;;17.20;64.60;;;;;;5047122;28;19915;-64
2023/11/14 00:25:22;;;;;;;;;;;17.20;64.50;;;;;;5045932;28;19924;-64
2023/11/14 00:27:50;;;;;;;;;;;17.20;64.50;;;;;;5048433;28;19998;-64
2023/11/14 00:30:16;;;;;;;;;;;17.10;64.50;;;;;;5048026;28;19919;-64
2023/11/14 00:32:41;;;;;;;;;;;17.20;64.50;;;;;;5047925;28;19908;-63
2023/11/14 00:35:07;;;;;;;;;;;17.20;64.50;;;;;;5048367;28;20054;-64
2023/11/14 00:37:33;;;;;;;;;;;17.20;64.60;;;;;;5048579;28;19909;-64
2023/11/14 00:39:58;;;;;;;;;;;17.20;64.50;;;;;;5047826;28;19913;-64
2023/11/14 00:42:24;;;;;;;;;;;17.20;64.50;;;;;;5044861;28;20302;-64
2023/11/14 00:44:49;;;;;;;;;;;17.20;64.50;;;;;;5044914;28;19979;-63
2023/11/14 00:47:15;;;;;;;;;;;17.20;64.50;;;;;;5040646;28;19915;-63
2023/11/14 00:49:40;;;;;;;;;;;17.20;64.50;;;;;;5043389;28;19948;-63
2023/11/14 00:52:06;;;;;;;;;;;17.20;64.50;;;;;;5040013;28;20004;-63
2023/11/14 00:54:31;;;;;;;;;;;17.30;64.40;;;;;;5040236;28;20023;-64
2023/11/14 00:56:57;;;;;;;;;;;17.50;64.10;;;;;;5042468;28;19936;-63
2023/11/14 00:59:23;;;;;;;;;;;17.70;63.40;;;;;;5040773;28;20359;-64
2023/11/14 01:01:48;;;;;;;;;;;18.20;62.10;;;;;;5042262;28;19928;-63
2023/11/14 01:04:17;;;;;;;;;;;18.60;61.10;;;;;;5045193;28;19916;-63
2023/11/14 01:06:43;;;;;;;;;;;18.80;60.60;;;;;;5041275;28;20914;-64
2023/11/14 01:09:09;;;;;;;;;;;18.80;60.30;;;;;;5041559;28;19916;-64
2023/11/14 01:11:35;;;;;;;;;;;18.80;60.40;;;;;;5042135;28;19924;-64
2023/11/14 01:14:00;;;;;;;;;;;18.80;60.50;;;;;;5045770;28;20397;-63
2023/11/14 01:16:26;;;;;;;;;;;18.70;60.60;;;;;;5044742;28;19916;-64
2023/11/14 01:18:54;;;;;;;;;;;18.60;60.90;;;;;;5051024;28;19913;-63
2023/11/14 01:21:19;;;;;;;;;;;18.50;61.20;;;;;;5052270;28;19950;-63
2023/11/14 01:23:45;;;;;;;;;;;18.40;61.40;;;;;;5048176;28;19943;-64
2023/11/14 01:26:10;;;;;;;;;;;18.40;61.70;;;;;;5050301;28;20170;-63
2023/11/14 01:28:36;;;;;;;;;;;18.30;61.90;;;;;;5047589;28;20260;-64
2023/11/14 01:31:01;;;;;;;;;;;18.20;62.10;;;;;;5047985;28;19920;-64
2023/11/14 01:33:27;;;;;;;;;;;18.10;62.30;;;;;;5048058;28;20391;-64
2023/11/14 01:35:52;;;;;;;;;;;18.10;62.50;;;;;;5046620;28;19923;-64
2023/11/14 01:38:17;;;;;;;;;;;18.10;62.50;;;;;;5050443;28;19920;-64
2023/11/14 01:40:51;;;;;;;;;;;18.10;62.40;;;;;;5049688;28;20288;-64
2023/11/14 01:43:16;;;;;;;;;;;18.30;62.20;;;;;;5051835;28;20363;-64
2023/11/14 01:45:42;;;;;;;;;;;18.50;61.70;;;;;;5049748;28;19912;-63
2023/11/14 01:48:07;;;;;;;;;;;18.70;61.10;;;;;;5047392;28;19924;-64
2023/11/14 01:50:33;;;;;;;;;;;19.00;60.60;;;;;;5047749;28;19935;-64
2023/11/14 01:52:59;;;;;;;;;;;19.20;59.90;;;;;;5052796;28;19908;-65
2023/11/14 01:55:25;;;;;;;;;;;19.50;59.40;;;;;;5049850;28;19915;-61
2023/11/14 01:57:52;;;;;;;;;;;19.60;58.90;;;;;;5047221;28;19962;-57
2023/11/14 02:00:18;;;;;;;;;;;19.70;58.70;;;;;;5043678;28;19940;-64
2023/11/14 02:02:43;;;;;;;;;;;19.80;58.50;;;;;;5041561;28;19949;-63
2023/11/14 02:05:09;;;;;;;;;;;19.80;58.50;;;;;;5042646;28;19916;-63
2023/11/14 02:07:35;;;;;;;;;;;19.70;58.60;;;;;;5039492;28;19913;-64
2023/11/14 02:10:01;;;;;;;;;;;19.60;58.80;;;;;;5039886;28;19936;-64
2023/11/14 02:12:26;;;;;;;;;;;19.60;59.10;;;;;;5043497;28;19909;-64
2023/11/14 02:14:52;;;;;;;;;;;19.50;59.20;;;;;;5043963;28;19920;-64
2023/11/14 02:17:17;;;;;;;;;;;19.50;59.50;;;;;;5044236;28;19959;-64
2023/11/14 02:19:43;;;;;;;;;;;19.40;59.50;;;;;;5044535;28;19916;-64
2023/11/14 02:22:12;;;;;;;;;;;19.30;59.70;;;;;;5043404;28;19916;-64
2023/11/14 02:24:40;;;;;;;;;;;19.20;59.90;;;;;;5042581;28;19909;-64
2023/11/14 02:27:07;;;;;;;;;;;19.10;60.20;;;;;;5042154;28;19981;-64
2023/11/14 02:29:35;;;;;;;;;;;19.00;60.50;;;;;;5042785;28;19916;-64
2023/11/14 02:32:00;;;;;;;;;;;19.00;60.70;;;;;;5043180;28;19915;-63
2023/11/14 02:34:26;;;;;;;;;;;18.80;60.90;;;;;;5043404;28;19995;-64
2023/11/14 02:36:51;;;;;;;;;;;18.80;61.20;;;;;;5040965;28;19912;-64
2023/11/14 02:39:17;;;;;;;;;;;18.70;61.30;;;;;;5040482;28;19920;-64
2023/11/14 02:41:42;;;;;;;;;;;18.70;61.60;;;;;;5041647;28;19917;-64
2023/11/14 02:44:08;;;;;;;;;;;18.60;61.60;;;;;;5041956;28;19982;-64
2023/11/14 02:46:34;;;;;;;;;;;18.60;61.80;;;;;;5043999;28;19913;-63
2023/11/14 02:49:18;;;;;;;;;;;18.50;61.90;;;;;;5047400;28;20393;-64
2023/11/14 02:51:43;;;;;;;;;;;18.50;62.10;;;;;;5047416;28;19909;-64
2023/11/14 02:54:09;;;;;;;;;;;18.40;62.20;;;;;;5046690;28;20458;-62
2023/11/14 02:56:34;;;;;;;;;;;18.40;62.30;;;;;;5049353;28;20344;-62
2023/11/14 02:59:00;;;;;;;;;;;18.30;62.40;;;;;;5046942;28;20426;-63
2023/11/14 03:01:26;;;;;;;;;;;18.30;62.50;;;;;;5046962;28;19940;-63
2023/11/14 03:03:51;;;;;;;;;;;18.30;62.60;;;;;;5044514;28;20333;-65
2023/11/14 03:06:17;;;;;;;;;;;18.20;62.60;;;;;;5044066;28;20450;-65
2023/11/14 03:08:42;;;;;;;;;;;18.20;62.70;;;;;;5045786;28;19909;-65
2023/11/14 03:11:08;;;;;;;;;;;18.20;62.80;;;;;;5044728;28;19916;-64
2023/11/14 03:13:33;;;;;;;;;;;18.20;62.90;;;;;;5045139;28;19909;-65
2023/11/14 03:15:59;;;;;;;;;;;18.10;62.90;;;;;;5047415;28;19909;-66
2023/11/14 03:18:24;;;;;;;;;;;18.10;63.00;;;;;;5044534;28;20287;-64
2023/11/14 03:20:50;;;;;;;;;;;18.10;63.10;;;;;;5044794;28;19999;-64
2023/11/14 03:23:15;;;;;;;;;;;18.10;63.10;;;;;;5044715;28;20012;-64
2023/11/14 03:25:41;;;;;;;;;;;18.00;63.10;;;;;;5043587;28;19920;-64
2023/11/14 03:28:06;;;;;;;;;;;18.00;63.10;;;;;;5044097;28;19919;-64
2023/11/14 03:30:32;;;;;;;;;;;18.00;63.30;;;;;;5051228;28;19992;-64
2023/11/14 03:32:58;;;;;;;;;;;17.90;63.30;;;;;;5044528;28;20037;-65
2023/11/14 03:35:23;;;;;;;;;;;17.90;63.40;;;;;;5049341;28;19927;-64
2023/11/14 03:37:49;;;;;;;;;;;17.90;63.40;;;;;;5047360;28;19916;-65
2023/11/14 03:40:14;;;;;;;;;;;17.90;63.50;;;;;;5043451;28;19909;-65
2023/11/14 03:42:40;;;;;;;;;;;17.90;63.50;;;;;;5043885;28;19913;-64
2023/11/14 03:45:05;;;;;;;;;;;17.90;63.60;;;;;;5041895;28;20301;-63
2023/11/14 03:47:31;;;;;;;;;;;17.90;63.60;;;;;;5044700;28;19919;-65
2023/11/14 03:49:57;;;;;;;;;;;17.80;63.50;;;;;;5041041;28;19915;-64
2023/11/14 03:52:22;;;;;;;;;;;17.80;63.60;;;;;;5045272;28;19916;-64
2023/11/14 03:54:48;;;;;;;;;;;17.80;63.60;;;;;;5045725;28;20013;-63
2023/11/14 03:57:13;;;;;;;;;;;17.80;63.60;;;;;;5045325;28;20310;-62
2023/11/14 03:59:39;;;;;;;;;;;17.80;63.60;;;;;;5044953;28;20008;-63
2023/11/14 04:02:04;;;;;;;;;;;17.80;63.60;;;;;;5045087;28;19909;-64
2023/11/14 04:04:30;;;;;;;;;;;17.80;63.60;;;;;;5044629;28;19916;-65
2023/11/14 04:06:56;;;;;;;;;;;17.80;63.60;;;;;;5046421;28;19916;-64
2023/11/14 04:09:21;;;;;;;;;;;17.80;63.70;;;;;;5042971;28;20204;-64
2023/11/14 04:11:48;;;;;;;;;;;17.80;63.70;;;;;;5044483;28;20338;-65
2023/11/14 04:14:13;;;;;;;;;;;17.80;63.70;;;;;;5044640;28;19997;-57
2023/11/14 04:16:39;;;;;;;;;;;17.80;63.70;;;;;;5045174;28;20145;-64
2023/11/14 04:19:04;;;;;;;;;;;17.80;63.70;;;;;;5045049;28;19955;-64
2023/11/14 04:21:30;;;;;;;;;;;17.70;63.70;;;;;;5045194;28;20167;-65
2023/11/14 04:23:55;;;;;;;;;;;17.70;63.70;;;;;;5045017;28;20429;-65
2023/11/14 04:26:22;;;;;;;;;;;17.70;63.80;;;;;;5044310;28;19920;-64
2023/11/14 04:28:47;;;;;;;;;;;17.70;63.70;;;;;;5044422;28;19915;-64
2023/11/14 04:31:13;;;;;;;;;;;17.70;63.80;;;;;;5048581;28;19909;-64
2023/11/14 04:33:38;;;;;;;;;;;17.70;63.80;;;;;;5051556;28;19915;-64
2023/11/14 04:36:06;;;;;;;;;;;17.70;63.80;;;;;;5051097;28;19908;-65
2023/11/14 04:38:31;;;;;;;;;;;17.70;63.80;;;;;;5051862;28;20367;-65
2023/11/14 04:40:56;;;;;;;;;;;17.70;63.90;;;;;;5051912;28;19920;-65
2023/11/14 04:43:23;;;;;;;;;;;17.70;63.90;;;;;;5048225;28;19913;-64
2023/11/14 04:45:48;;;;;;;;;;;17.60;63.80;;;;;;5045111;28;19921;-64
2023/11/14 04:48:14;;;;;;;;;;;17.60;64.50;;;;;;5050388;28;19969;-64
2023/11/14 04:50:39;;;;;;;;;;;17.60;63.90;;;;;;5047901;28;19954;-65
2023/11/14 04:53:04;;;;;;;;;;;17.60;63.90;;;;;;5048145;28;19909;-64
2023/11/14 04:55:30;;;;;;;;;;;17.70;63.90;;;;;;5050233;28;19912;-64
2023/11/14 04:57:55;;;;;;;;;;;17.60;63.90;;;;;;5048722;28;19909;-64
2023/11/14 05:00:21;;;;;;;;;;;17.60;64.50;;;;;;5047494;28;19909;-64
2023/11/14 05:02:47;;;;;;;;;;;17.60;63.90;;;;;;5049752;28;19924;-65
2023/11/14 05:05:12;;;;;;;;;;;17.60;63.90;;;;;;5047789;28;19913;-63
2023/11/14 05:07:39;;;;;;;;;;;17.60;63.90;;;;;;5049523;28;19954;-65
2023/11/14 05:10:05;;;;;;;;;;;17.60;63.90;;;;;;5050342;28;19954;-64
2023/11/14 05:12:30;;;;;;;;;;;17.60;64.00;;;;;;5049829;28;20607;-65
2023/11/14 05:14:56;;;;;;;;;;;17.50;63.90;;;;;;5052495;28;19908;-65
2023/11/14 05:17:21;;;;;;;;;;;17.60;64.00;;;;;;5050651;28;20291;-64
2023/11/14 05:19:47;;;;;;;;;;;17.60;64.00;;;;;;5050081;28;20376;-64
2023/11/14 05:22:12;;;;;;;;;;;17.60;64.00;;;;;;5049556;28;19924;-63
2023/11/14 05:24:39;;;;;;;;;;;17.60;64.10;;;;;;5049194;28;19975;-64
2023/11/14 05:27:05;;;;;;;;;;;17.60;64.10;;;;;;5049741;28;19920;-64
2023/11/14 05:29:30;;;;;;;;;;;17.60;64.10;;;;;;5047376;28;19940;-65
2023/11/14 05:31:55;;;;;;;;;;;17.50;64.00;;;;;;5048773;28;20387;-64
2023/11/14 05:34:21;;;;;;;;;;;17.50;64.00;;;;;;5048320;28;19994;-64
2023/11/14 05:36:46;;;;;;;;;;;17.50;64.00;;;;;;5047699;28;19916;-64
2023/11/14 05:39:12;;;;;;;;;;;17.50;64.00;;;;;;5049164;28;19912;-65
2023/11/14 05:41:39;;;;;;;;;;;17.50;64.10;;;;;;5046591;28;19988;-64
2023/11/14 05:44:05;;;;;;;;;;;17.50;64.10;;;;;;5049458;28;19916;-65
2023/11/14 05:46:30;;;;;;;;;;;17.50;64.10;;;;;;5048092;28;19916;-64
2023/11/14 05:48:55;;;;;;;;;;;17.50;64.10;;;;;;5048078;28;19916;-64
2023/11/14 05:51:21;;;;;;;;;;;17.50;64.00;;;;;;5048353;28;19936;-64
2023/11/14 05:53:46;;;;;;;;;;;17.50;64.10;;;;;;5048415;28;19909;-64
2023/11/14 05:56:12;;;;;;;;;;;17.50;64.10;;;;;;5048865;28;19909;-65
2023/11/14 05:58:37;;;;;;;;;;;17.50;64.10;;;;;;5048200;28;19913;-57
2023/11/14 06:01:03;;;;;;;;;;;17.50;64.10;;;;;;5049996;28;19955;-64
2023/11/14 06:03:28;;;;;;;;;;;17.50;64.10;;;;;;5043598;28;21199;-65
2023/11/14 06:05:54;;;;;;;;;;;17.50;64.20;;;;;;5056220;28;19912;-64
2023/11/14 06:08:19;;;;;;;;;;;17.50;64.20;;;;;;5047555;28;19913;-64
2023/11/14 06:10:45;;;;;;;;;;;17.50;64.10;;;;;;5048403;28;19917;-64
2023/11/14 06:13:10;;;;;;;;;;;17.50;64.20;;;;;;5048248;28;20641;-65
2023/11/14 06:15:36;;;;;;;;;;;17.50;64.20;;;;;;5048746;28;20314;-66
2023/11/14 06:18:01;;;;;;;;;;;17.50;64.10;;;;;;5049295;28;19991;-65
2023/11/14 06:20:27;;;;;;;;;;;17.50;64.20;;;;;;5047566;28;19915;-65
2023/11/14 06:22:52;;;;;;;;;;;17.40;64.20;;;;;;5047649;28;20347;-65
2023/11/14 06:25:18;;;;;;;;;;;17.40;64.20;;;;;;5047188;28;19916;-62
2023/11/14 06:27:43;;;;;;;;;;;17.50;64.30;;;;;;5048277;28;20298;-57
2023/11/14 06:30:11;;;;;;;;;;;17.50;64.20;;;;;;5046787;28;19908;-64
2023/11/14 06:32:37;;;;;;;;;;;17.40;64.20;;;;;;5045479;28;20192;-65
2023/11/14 06:35:03;;;;;;;;;;;17.50;64.30;;;;;;5048217;28;19999;-54
2023/11/14 06:37:28;;;;;;;;;;;17.50;64.20;;;;;;5047017;28;19916;-66
2023/11/14 06:39:55;;;;;;;;;;;17.40;64.20;;;;;;5046082;28;19912;-64
2023/11/14 06:42:23;;;;;;;;;;;17.50;64.30;;;;;;5045695;28;20710;-65
2023/11/14 06:44:49;;;;;;;;;;;17.40;64.30;;;;;;5047080;28;19964;-64
2023/11/14 06:47:17;;;;;;;;;;;17.40;64.30;;;;;;5048079;28;20383;-64
2023/11/14 06:49:43;;;;;;;;;;;17.40;64.30;;;;;;5036839;28;19912;-64
2023/11/14 06:52:10;;;;;;;;;;;17.40;64.30;;;;;;5039749;28;19916;-64
2023/11/14 06:54:36;;;;;;;;;;;17.40;64.30;;;;;;5038925;28;19908;-64
2023/11/14 06:57:02;;;;;;;;;;;17.40;64.30;;;;;;5045454;28;19974;-65
2023/11/14 06:59:29;;;;;;;;;;;17.40;64.20;;;;;;5042204;28;19917;-62
2023/11/14 07:01:55;;;;;;;;;;;17.40;64.20;;;;;;5043405;28;20313;-63
2023/11/14 07:04:20;;;;;;;;;;;17.40;64.20;;;;;;5042175;28;19944;-62
2023/11/14 07:06:46;;;;;;;;;;;17.40;64.20;;;;;;5042491;28;19925;-63
2023/11/14 07:09:11;;;;;;;;;;;17.40;64.30;;;;;;5039675;28;20370;-63
2023/11/14 07:11:37;;;;;;;;;;;17.40;64.30;;;;;;5041240;28;20260;-63
2023/11/14 07:14:02;;;;;;;;;;;17.40;64.30;;;;;;5039537;28;20003;-64
2023/11/14 07:16:28;;;;;;;;;;;17.40;64.30;;;;;;5040175;28;19952;-63
2023/11/14 07:18:54;;;;;;;;;;;17.40;64.30;;;;;;5038236;28;19917;-64
2023/11/14 07:21:19;;;;;;;;;;;17.40;64.30;;;;;;5044933;28;19908;-58
2023/11/14 07:23:44;;;;;;;;;;;17.40;64.30;;;;;;5045984;28;20381;-63
2023/11/14 07:26:10;;;;;;;;;;;17.40;64.30;;;;;;5045738;28;20291;-64
2023/11/14 07:28:37;;;;;;;;;;;17.40;64.30;;;;;;5045127;28;20387;-64
2023/11/14 07:31:02;;;;;;;;;;;17.40;64.30;;;;;;5045821;28;19963;-64
2023/11/14 07:33:28;;;;;;;;;;;17.40;64.30;;;;;;5044556;28;19908;-61
2023/11/14 07:35:54;;;;;;;;;;;17.40;64.30;;;;;;5032061;28;19943;-64
2023/11/14 07:38:19;;;;;;;;;;;17.40;64.30;;;;;;5041334;28;19960;-64
2023/11/14 07:40:45;;;;;;;;;;;17.40;64.30;;;;;;5037459;28;19921;-62
2023/11/14 07:43:10;;;;;;;;;;;17.40;64.30;;;;;;5033875;28;19959;-64
2023/11/14 07:45:36;;;;;;;;;;;17.40;64.30;;;;;;5035769;28;20300;-64
2023/11/14 07:48:01;;;;;;;;;;;17.40;64.40;;;;;;5036507;28;19915;-64
2023/11/14 07:50:26;;;;;;;;;;;17.40;64.40;;;;;;5032568;28;19948;-64
2023/11/14 07:52:52;;;;;;;;;;;17.40;64.40;;;;;;5042194;28;19913;-65
2023/11/14 07:55:17;;;;;;;;;;;17.40;64.40;;;;;;5034935;28;19909;-64
2023/11/14 07:57:43;;;;;;;;;;;17.40;64.50;;;;;;5039423;28;19915;-64
2023/11/14 08:00:11;;;;;;;;;;;17.40;64.40;;;;;;5044167;28;19992;-63
2023/11/14 08:02:37;;;;;;;;;;;17.40;64.50;;;;;;5045221;28;19920;-63
2023/11/14 08:05:03;;;;;;;;;;;17.40;64.50;;;;;;5048092;28;19913;-63
2023/11/14 08:07:29;;;;;;;;;;;17.40;64.50;;;;;;5041826;28;19913;-60
2023/11/14 08:09:54;;;;;;;;;;;17.40;64.60;;;;;;5038770;28;20283;-65
2023/11/14 08:12:20;;;;;;;;;;;17.40;64.60;;;;;;5041081;28;19940;-64
2023/11/14 08:14:45;;;;;;;;;;;17.40;64.60;;;;;;5036635;28;19913;-64
2023/11/14 08:17:11;;;;;;;;;;;17.40;64.70;;;;;;5034834;28;20386;-64
2023/11/14 08:19:36;;;;;;;;;;;17.40;64.70;;;;;;5040832;28;19948;-64
2023/11/14 08:22:06;;;;;;;;;;;17.40;64.70;;;;;;5040754;28;19915;-64
2023/11/14 08:24:33;;;;;;;;;;;17.40;64.70;;;;;;5038507;28;19909;-64
2023/11/14 08:26:58;;;;;;;;;;;17.40;64.80;;;;;;5041673;28;19923;-64
2023/11/14 08:29:24;;;;;;;;;;;17.40;64.70;;;;;;5039222;28;19921;-64
2023/11/14 08:31:49;;;;;;;;;;;17.40;64.80;;;;;;5042854;28;19920;-64
2023/11/14 08:34:15;;;;;;;;;;;17.40;64.80;;;;;;5042608;28;19909;-64
2023/11/14 08:36:40;;;;;;;;;;;17.40;64.80;;;;;;5040229;28;20371;-64
2023/11/14 08:39:09;;;;;;;;;;;17.40;64.80;;;;;;5037405;28;19909;-64
2023/11/14 08:41:35;;;;;;;;;;;17.40;64.90;;;;;;5037266;28;19999;-65
2023/11/14 08:44:00;;;;;;;;;;;17.50;64.90;;;;;;5042133;28;20011;-64
2023/11/14 08:46:26;;;;;;;;;;;17.50;64.80;;;;;;5039908;28;20327;-64
2023/11/14 08:48:52;;;;;;;;;;;17.40;64.80;;;;;;5039392;28;20362;-64
2023/11/14 08:51:18;;;;;;;;;;;17.50;64.90;;;;;;5041857;28;19913;-64
2023/11/14 08:53:43;;;;;;;;;;;17.50;64.90;;;;;;5040395;28;20004;-64
2023/11/14 08:56:09;;;;;;;;;;;17.50;64.90;;;;;;5042642;28;19954;-64
2023/11/14 08:58:36;;;;;;;;;;;17.50;64.90;;;;;;5045956;28;19916;-65
2023/11/14 09:01:02;;;;;;;;;;;17.50;65.00;;;;;;5040576;28;20351;-64
2023/11/14 09:03:27;;;;;;;;;;;17.50;64.90;;;;;;5039170;28;20283;-63
2023/11/14 09:05:53;;;;;;;;;;;17.50;64.90;;;;;;5038315;28;19956;-65
2023/11/14 09:08:18;;;;;;;;;;;17.50;65.00;;;;;;5035647;28;19915;-64
2023/11/14 09:10:44;;;;;;;;;;;17.50;65.00;;;;;;5049068;28;19909;-65
2023/11/14 09:13:12;;;;;;;;;;;17.50;65.00;;;;;;5035774;28;20008;-64
2023/11/14 09:15:40;;;;;;;;;;;17.50;64.90;;;;;;5044296;28;19971;-64
2023/11/14 09:18:06;;;;;;;;;;;17.50;65.00;;;;;;5039127;28;19909;-65
2023/11/14 09:20:31;;;;;;;;;;;17.50;64.90;;;;;;5044696;28;19915;-63
2023/11/14 09:22:57;;;;;;;;;;;17.50;64.90;;;;;;5040961;28;19920;-64
2023/11/14 09:25:22;;;;;;;;;;;17.50;64.90;;;;;;5043298;28;20352;-64
2023/11/14 09:27:48;;;;;;;;;;;17.50;64.80;;;;;;5043588;28;19913;-64
2023/11/14 09:30:14;;;;;;;;;;;17.50;64.80;;;;;;5038545;28;20392;-64
2023/11/14 09:32:40;;;;;;;;;;;17.50;64.80;;;;;;5046354;28;20714;-64
2023/11/14 09:35:05;;;;;;;;;;;17.50;64.70;;;;;;5043073;28;19939;-64
2023/11/14 09:37:31;;;;;;;;;;;17.50;65.40;;;;;;5035039;28;20382;-59
2023/11/14 09:39:56;;;;;;;;;;;17.50;64.80;;;;;;5046527;28;19992;-64
2023/11/14 09:42:22;;;;;;;;;;;17.50;64.70;;;;;;5045740;28;19960;-64
2023/11/14 09:44:48;;;;;;;;;;;17.50;64.70;;;;;;5049690;28;19913;-64
2023/11/14 09:47:15;;;;;;;;;;;17.50;64.70;;;;;;5045371;28;19928;-64
2023/11/14 09:49:42;;;;;;;;;;;17.50;64.70;;;;;;5044869;28;20004;-63
2023/11/14 09:52:10;;;;;;;;;;;17.50;64.60;;;;;;5042466;28;19920;-64
2023/11/14 09:54:35;;;;;;;;;;;17.50;64.60;;;;;;5041909;28;20375;-64
2023/11/14 09:57:04;;;;;;;;;;;17.50;64.60;;;;;;5039936;28;19920;-64
2023/11/14 09:59:32;;;;;;;;;;;17.50;64.70;;;;;;5041428;28;20105;-64
2023/11/14 10:01:57;;;;;;;;;;;17.50;64.70;;;;;;5047215;28;19913;-64
2023/11/14 10:04:23;;;;;;;;;;;17.50;64.70;;;;;;5044961;28;19961;-65
2023/11/14 10:06:51;;;;;;;;;;;17.50;64.70;;;;;;5039667;28;20294;-64
2023/11/14 10:09:18;;;;;;;;;;;17.50;64.70;;;;;;5043317;28;19938;-65
2023/11/14 10:11:48;;;;;;;;;;;17.50;64.70;;;;;;5046594;28;19960;-64
2023/11/14 10:14:14;;;;;;;;;;;17.50;64.70;;;;;;5042810;28;20264;-64
2023/11/14 10:16:39;;;;;;;;;;;17.50;64.70;;;;;;5045190;28;19916;-65
2023/11/14 10:19:12;;;;;;;;;;;17.50;64.70;;;;;;5041371;28;19913;-64
2023/11/14 10:21:38;;;;;;;;;;;17.50;64.80;;;;;;5038572;28;19912;-62
2023/11/14 10:24:23;;;;;;;;;;;17.50;64.80;;;;;;5043545;28;19912;-64
2023/11/14 10:26:53;;;;;;;;;;;17.50;64.70;;;;;;5040747;28;19954;-63
2023/11/14 10:29:19;;;;;;;;;;;17.50;64.70;;;;;;5037835;28;19921;-62
2023/11/14 10:31:45;;;;;;;;;;;17.50;64.80;;;;;;5043108;28;20003;-65
2023/11/14 10:34:27;;;;;;;;;;;17.50;64.80;;;;;;5041391;28;20372;-64
2023/11/14 10:36:54;;;;;;;;;;;17.50;64.70;;;;;;5042357;28;19966;-64
2023/11/14 10:39:20;;;;;;;;;;;17.50;64.80;;;;;;5046056;28;19909;-64
2023/11/14 10:41:45;;;;;;;;;;;17.50;64.80;;;;;;5041735;28;20110;-64
2023/11/14 10:44:12;;;;;;;;;;;17.50;64.90;;;;;;5039022;28;19932;-64
2023/11/14 10:46:46;;;;;;;;;;;17.50;64.80;;;;;;5040434;28;19974;-65
2023/11/14 10:49:11;;;;;;;;;;;17.50;64.80;;;;;;5054854;28;19912;-64
2023/11/14 10:51:37;;;;;;;;;;;17.50;64.80;;;;;;5040098;28;19938;-64
2023/11/14 10:54:06;;;;;;;;;;;17.60;65.00;;;;;;5034954;28;20029;-64
2023/11/14 10:56:32;;;;;;;;;;;17.50;64.90;;;;;;5037101;28;19971;-64
2023/11/14 10:58:58;;;;;;;;;;;17.50;65.00;;;;;;5031227;28;19996;-64
2023/11/14 11:01:23;;;;;;;;;;;17.50;65.00;;;;;;5040845;28;19999;-64
2023/11/14 11:03:51;;;;;;;;;;;17.50;65.00;;;;;;5038294;28;19936;-64
2023/11/14 11:06:17;;;;;;;;;;;17.50;65.00;;;;;;5039163;28;19920;-64
2023/11/14 11:08:42;;;;;;;;;;;17.50;65.00;;;;;;5042674;28;19920;-63
2023/11/14 11:11:08;;;;;;;;;;;17.50;65.00;;;;;;5041402;28;19909;-64
2023/11/14 11:13:35;;;;;;;;;;;17.50;65.00;;;;;;5029965;28;19919;-63
2023/11/14 11:16:00;;;;;;;;;;;17.50;65.00;;;;;;5043742;28;19967;-64
2023/11/14 11:18:33;;;;;;;;;;;17.50;65.10;;;;;;5041736;28;20391;-64
2023/11/14 11:21:26;;;;;;;;;;;17.50;65.10;;;;;;5034916;28;19920;-64
2023/11/14 11:24:09;;;;;;;;;;;17.50;65.10;;;;;;5042079;28;19913;-64
2023/11/14 11:27:09;;;;;;;;;;;17.50;65.00;;;;;;5035096;28;20191;-63
2023/11/14 11:29:48;;;;;;;;;;;17.50;64.90;;;;;;5038630;28;20319;-63
2023/11/14 11:32:23;;;;;;;;;;;17.50;64.80;;;;;;5038863;28;19920;-64
2023/11/14 11:35:08;;;;;;;;;;;17.50;64.90;;;;;;5044092;28;19931;-65
2023/11/14 11:37:43;;;;;;;;;;;17.50;64.90;;;;;;5041290;28;19966;-63
2023/11/14 11:40:11;;;;;;;;;;;17.50;65.00;;;;;;5039580;28;20086;-64
2023/11/14 11:42:38;;;;;;;;;;;17.50;65.00;;;;;;5040147;28;19916;-64
2023/11/14 11:45:04;;;;;;;;;;;17.50;65.00;;;;;;5045620;28;19912;-64
2023/11/14 11:47:34;;;;;;;;;;;17.50;65.00;;;;;;5045280;28;20424;-64
2023/11/14 11:49:59;;;;;;;;;;;17.60;65.00;;;;;;5044262;28;19952;-64
2023/11/14 11:52:25;;;;;;;;;;;17.50;65.00;;;;;;5045334;28;20554;-64
2023/11/14 11:55:10;;;;;;;;;;;17.50;65.00;;;;;;5044892;28;19916;-64
2023/11/14 11:57:36;;;;;;;;;;;17.50;65.00;;;;;;5043922;28;19913;-63
2023/11/14 12:00:22;;;;;;;;;;;17.50;65.00;;;;;;5048700;28;20031;-63
2023/11/14 12:02:48;;;;;;;;;;;17.50;65.00;;;;;;5045005;28;19917;-64
2023/11/14 12:05:14;;;;;;;;;;;17.50;65.00;;;;;;5055821;28;19986;-64
2023/11/14 12:07:40;;;;;;;;;;;17.50;65.10;;;;;;5046340;28;19931;-64
2023/11/14 12:10:06;;;;;;;;;;;17.50;65.10;;;;;;5043101;28;19912;-64
2023/11/14 12:12:36;;;;;;;;;;;17.50;65.10;;;;;;5045851;28;19913;-64
2023/11/14 12:15:04;;;;;;;;;;;17.50;65.00;;;;;;5045149;28;19912;-64
2023/11/14 12:17:30;;;;;;;;;;;17.50;65.00;;;;;;5038215;28;21047;-64
2023/11/14 12:19:55;;;;;;;;;;;17.60;65.10;;;;;;5037949;28;20421;-64
2023/11/14 12:22:21;;;;;;;;;;;17.60;65.00;;;;;;5038910;28;19920;-65
2023/11/14 12:24:47;;;;;;;;;;;17.60;65.10;;;;;;5037279;28;19966;-64
2023/11/14 12:27:14;;;;;;;;;;;17.60;65.00;;;;;;5041646;28;19924;-64
2023/11/14 12:29:40;;;;;;;;;;;17.50;65.00;;;;;;5041729;28;20329;-64
2023/11/14 12:32:11;;;;;;;;;;;17.50;65.00;;;;;;5039374;28;19912;-64
2023/11/14 12:34:37;;;;;;;;;;;17.60;65.00;;;;;;5037620;28;20315;-63
2023/11/14 12:37:04;;;;;;;;;;;17.50;65.00;;;;;;5041048;28;20416;-64
2023/11/14 12:39:29;;;;;;;;;;;17.50;65.00;;;;;;5038866;28;19908;-64
2023/11/14 12:41:54;;;;;;;;;;;17.50;65.00;;;;;;5038973;28;20349;-64
2023/11/14 12:44:21;;;;;;;;;;;17.50;65.00;;;;;;5039120;28;19913;-64
2023/11/14 12:46:51;;;;;;;;;;;17.60;65.10;;;;;;5043122;28;20291;-63
2023/11/14 12:49:17;;;;;;;;;;;17.50;65.00;;;;;;5032611;28;19909;-63
2023/11/14 12:51:47;;;;;;;;;;;17.50;65.00;;;;;;5049918;28;20387;-65
2023/11/14 12:54:14;;;;;;;;;;;17.50;65.10;;;;;;5045739;28;19912;-64
2023/11/14 12:56:40;;;;;;;;;;;17.50;65.10;;;;;;5051993;28;19919;-66
2023/11/14 12:59:07;;;;;;;;;;;17.50;65.20;;;;;;5054680;28;19912;-64
2023/11/14 13:01:36;;;;;;;;;;;17.50;65.10;;;;;;5052868;28;20011;-64
2023/11/14 13:04:06;;;;;;;;;;;17.50;65.00;;;;;;5050488;28;19963;-64
2023/11/14 13:06:32;;;;;;;;;;;17.50;65.10;;;;;;5050918;28;19912;-64
2023/11/14 13:08:58;;;;;;;;;;;17.60;65.00;;;;;;5044921;28;19909;-63
2023/11/14 13:11:24;;;;;;;;;;;17.60;65.00;;;;;;5044872;28;20230;-64
2023/11/14 13:13:49;;;;;;;;;;;17.60;65.00;;;;;;5047345;28;20351;-64
2023/11/14 13:16:15;;;;;;;;;;;17.50;65.00;;;;;;5054756;28;19958;-64
2023/11/14 13:18:40;;;;;;;;;;;17.60;65.00;;;;;;5046832;28;19924;-64
2023/11/14 13:21:06;;;;;;;;;;;17.60;65.00;;;;;;5048297;28;20274;-64
2023/11/14 13:23:31;;;;;;;;;;;17.60;65.00;;;;;;5044829;28;19917;-64
2023/11/14 13:25:57;;;;;;;;;;;17.60;65.00;;;;;;5041451;28;19922;-64
2023/11/14 13:28:22;;;;;;;;;;;17.60;65.10;;;;;;5047015;28;19917;-64
2023/11/14 13:30:49;;;;;;;;;;;17.50;65.00;;;;;;5051717;28;20058;-64
2023/11/14 13:33:15;;;;;;;;;;;17.60;65.10;;;;;;5047781;28;19916;-64
2023/11/14 13:35:40;;;;;;;;;;;17.60;65.00;;;;;;5046509;28;19965;-61
2023/11/14 13:38:06;;;;;;;;;;;17.50;65.00;;;;;;5042080;28;19924;-65
2023/11/14 13:40:32;;;;;;;;;;;17.50;65.10;;;;;;5050594;28;19920;-64
2023/11/14 13:42:57;;;;;;;;;;;17.50;65.00;;;;;;5042371;28;19912;-64
2023/11/14 13:45:23;;;;;;;;;;;17.60;65.10;;;;;;5044987;28;19915;-64
2023/11/14 13:47:49;;;;;;;;;;;17.60;65.10;;;;;;5047673;28;19908;-64
2023/11/14 13:50:15;;;;;;;;;;;17.50;65.00;;;;;;5052877;28;19916;-64
2023/11/14 13:52:41;;;;;;;;;;;17.60;65.00;;;;;;5048784;28;19909;-64
2023/11/14 13:55:07;;;;;;;;;;;17.50;65.00;;;;;;5046735;28;19913;-64
2023/11/14 13:57:33;;;;;;;;;;;17.50;65.00;;;;;;5051078;28;20347;-64
2023/11/14 13:59:58;;;;;;;;;;;17.50;65.00;;;;;;5050303;28;19908;-63
2023/11/14 14:02:24;;;;;;;;;;;17.50;65.00;;;;;;5053184;28;19957;-65
2023/11/14 14:04:49;;;;;;;;;;;17.50;65.00;;;;;;5054298;28;19909;-65
2023/11/14 14:07:14;;;;;;;;;;;17.50;65.00;;;;;;5046894;28;19912;-64
2023/11/14 14:09:40;;;;;;;;;;;17.50;65.00;;;;;;5049797;28;19916;-64
2023/11/14 14:12:06;;;;;;;;;;;17.50;65.00;;;;;;5051808;28;20380;-64